Time;durP1;ratioP1;P1;durP2;ratioP2;P2;SDS_P1;SDS_P2;PMS_P1;PMS_P2;Temp;Humidity;BMP_temperature;BMP_pressure;BME280_temperature;BME280_humidity;BME280_pressure;Samples;Min_cycle;Max_cycle;Signal;HPM_P1;HPM_P2
2022/12/24 00:01:21;;;;;;;18.70;16.20;;;12.60;99.90;;;;;;5027389;28;20064;-90
2022/12/24 00:03:48;;;;;;;17.73;16.02;;;12.60;99.90;;;;;;4993557;28;20033;-90
2022/12/24 00:06:19;;;;;;;17.48;15.52;;;12.60;99.90;;;;;;4993073;28;20042;-91
2022/12/24 00:08:45;;;;;;;16.88;15.25;;;12.50;99.90;;;;;;4999177;28;20029;-91
2022/12/24 00:11:11;;;;;;;16.02;14.32;;;12.50;99.90;;;;;;4997930;28;20037;-90
2022/12/24 00:13:37;;;;;;;14.77;12.60;;;12.50;99.90;;;;;;5013428;28;20044;-90
2022/12/24 00:16:04;;;;;;;15.48;13.25;;;12.50;99.90;;;;;;5027363;28;20045;-90
2022/12/24 00:18:30;;;;;;;15.45;13.30;;;12.40;99.90;;;;;;5010903;28;20029;-90
2022/12/24 00:20:56;;;;;;;15.38;14.02;;;12.40;99.90;;;;;;5010971;28;20121;-90
2022/12/24 00:23:23;;;;;;;14.60;13.50;;;12.40;99.90;;;;;;5010859;28;20198;-90
2022/12/24 00:25:49;;;;;;;15.63;14.38;;;12.40;99.90;;;;;;4985218;28;20049;-90
2022/12/24 00:28:15;;;;;;;16.08;13.98;;;12.40;99.90;;;;;;5025071;28;20029;-90
2022/12/24 00:30:41;;;;;;;17.55;13.80;;;12.40;99.90;;;;;;4979468;28;20037;-89
2022/12/24 00:33:08;;;;;;;14.00;12.70;;;12.30;99.90;;;;;;5009051;28;20033;-90
2022/12/24 00:35:37;;;;;;;13.02;11.88;;;12.30;99.90;;;;;;4990281;28;20382;-89
2022/12/24 00:38:03;;;;;;;14.68;13.45;;;12.30;99.90;;;;;;5011103;28;20037;-90
2022/12/24 00:40:30;;;;;;;14.45;12.20;;;12.30;99.90;;;;;;4995884;28;20033;-90
2022/12/24 00:42:56;;;;;;;14.95;13.55;;;12.30;99.90;;;;;;4995044;28;20040;-90
2022/12/24 00:45:22;;;;;;;14.07;12.85;;;12.30;99.90;;;;;;4996276;28;20042;-90
2022/12/24 00:47:48;;;;;;;14.77;13.48;;;12.30;99.90;;;;;;5026206;28;20034;-90
2022/12/24 00:50:14;;;;;;;15.90;14.38;;;12.30;99.90;;;;;;5014448;28;20049;-90
2022/12/24 00:52:40;;;;;;;14.43;13.25;;;12.30;99.90;;;;;;4993231;28;20057;-90
2022/12/24 00:55:07;;;;;;;13.93;12.65;;;12.30;99.90;;;;;;5011629;28;20029;-90
2022/12/24 00:57:33;;;;;;;15.10;13.70;;;12.30;99.90;;;;;;4993430;28;20052;-90
2022/12/24 00:59:59;;;;;;;15.07;13.90;;;12.30;99.90;;;;;;5013724;28;20383;-89
2022/12/24 01:02:25;;;;;;;14.07;13.07;;;12.30;99.90;;;;;;4995048;28;20038;-90
2022/12/24 01:05:09;;;;;;;13.73;12.63;;;12.30;99.90;;;;;;5029576;28;20379;-89
2022/12/24 01:07:39;;;;;;;12.85;11.65;;;12.30;99.90;;;;;;4987147;28;20387;-89
2022/12/24 01:10:06;;;;;;;15.77;12.47;;;12.20;99.90;;;;;;5016221;28;20021;-89
2022/12/24 01:12:32;;;;;;;13.02;11.90;;;12.20;99.90;;;;;;5001423;28;20307;-90
2022/12/24 01:14:58;;;;;;;15.25;13.88;;;12.20;99.90;;;;;;4980276;28;20410;-90
2022/12/24 01:17:24;;;;;;;14.82;13.40;;;12.20;99.90;;;;;;5024981;28;20037;-89
2022/12/24 01:19:50;;;;;;;14.50;13.02;;;12.20;99.90;;;;;;5026313;28;20056;-89
2022/12/24 01:22:16;;;;;;;13.95;12.63;;;12.20;99.90;;;;;;4984532;28;20052;-90
2022/12/24 01:24:43;;;;;;;17.88;15.75;;;12.20;99.90;;;;;;5031904;28;20041;-89
2022/12/24 01:27:09;;;;;;;15.15;13.85;;;12.20;99.90;;;;;;5001820;28;20489;-88
2022/12/24 01:29:35;;;;;;;15.32;13.82;;;12.20;99.90;;;;;;5015465;28;20033;-89
2022/12/24 01:32:01;;;;;;;16.45;14.82;;;12.20;99.90;;;;;;5031136;28;20056;-88
2022/12/24 01:34:27;;;;;;;16.55;14.05;;;12.20;99.90;;;;;;5015691;28;20474;-88
2022/12/24 01:36:53;;;;;;;14.38;12.98;;;12.20;99.90;;;;;;5011447;28;20026;-89
2022/12/24 01:39:19;;;;;;;15.60;14.27;;;12.20;99.90;;;;;;5012194;28;20483;-89
2022/12/24 01:44:32;;;;;;;13.43;12.32;;;12.20;99.90;;;;;;5018118;28;20040;-88
2022/12/24 01:47:08;;;;;;;13.50;12.07;;;12.20;99.90;;;;;;4982929;28;20044;-89
2022/12/24 01:49:34;;;;;;;15.43;14.00;;;12.20;99.90;;;;;;5015541;28;20025;-89
2022/12/24 01:52:04;;;;;;;15.77;14.38;;;12.20;99.90;;;;;;5013548;28;20046;-89
2022/12/24 01:54:35;;;;;;;14.82;13.60;;;12.30;99.90;;;;;;4997929;28;20033;-89
2022/12/24 01:57:08;;;;;;;;;;;12.30;99.90;;;;;;4998969;28;20053;-89
2022/12/24 01:59:35;;;;;;;15.20;13.70;;;12.20;99.90;;;;;;5012652;28;20295;-89
2022/12/24 02:02:01;;;;;;;15.07;13.73;;;12.20;99.90;;;;;;4982408;28;20045;-89
2022/12/24 02:04:41;;;;;;;15.05;13.75;;;12.20;99.90;;;;;;5014122;28;20042;-88
2022/12/24 02:07:07;;;;;;;15.27;13.75;;;12.10;99.90;;;;;;5006632;28;20048;-89
2022/12/24 02:09:33;;;;;;;16.10;14.40;;;12.10;99.90;;;;;;4995888;28;20482;-88
2022/12/24 02:11:59;;;;;;;15.75;14.25;;;12.10;99.90;;;;;;4994887;28;20052;-89
2022/12/24 02:14:26;;;;;;;16.48;14.93;;;12.10;99.90;;;;;;5011967;28;20026;-89
2022/12/24 02:17:28;;;;;;;15.95;14.27;;;12.10;99.90;;;;;;5010625;28;20037;-89
2022/12/24 02:20:18;;;;;;;15.23;13.88;;;12.20;99.90;;;;;;4982087;28;20070;-89
2022/12/24 02:22:44;;;;;;;15.45;14.20;;;12.20;99.90;;;;;;4978816;28;20045;-89
2022/12/24 02:25:19;;;;;;;17.27;13.93;;;12.20;99.90;;;;;;4985341;28;20395;-90
2022/12/24 02:28:00;;;;;;;15.70;14.27;;;12.30;99.90;;;;;;4968453;28;20420;-89
2022/12/24 02:30:31;;;;;;;16.38;14.25;;;12.20;99.90;;;;;;4972248;28;20041;-89
2022/12/24 02:33:24;;;;;;;16.90;15.15;;;12.20;99.90;;;;;;4978649;28;20065;-89
2022/12/24 02:36:05;;;;;;;16.33;14.63;;;12.30;99.90;;;;;;4986197;28;20038;-89
2022/12/24 02:38:37;;;;;;;;;;;12.20;99.90;;;;;;4985022;28;20042;-90
2022/12/24 02:42:04;;;;;;;15.07;13.73;;;12.20;99.90;;;;;;4999251;28;19909;-89
2022/12/24 02:44:15;;;;;;;16.45;14.73;;;12.10;99.90;;;;;;4986779;28;20047;-88
2022/12/24 02:46:41;;;;;;;16.92;14.32;;;12.10;99.90;;;;;;4971788;28;20039;-87
2022/12/24 02:49:07;;;;;;;17.92;16.13;;;12.00;99.90;;;;;;4984141;28;20037;-89
2022/12/24 02:51:33;;;;;;;17.33;15.73;;;12.00;99.90;;;;;;4982368;28;20050;-88
2022/12/24 02:53:59;;;;;;;19.90;16.60;;;11.90;99.90;;;;;;4964893;28;20547;-89
2022/12/24 02:56:53;;;;;;;18.45;16.75;;;11.90;99.90;;;;;;4983800;28;20053;-89
2022/12/24 02:59:28;;;;;;;17.65;16.02;;;11.90;99.90;;;;;;5030877;28;20474;-89
2022/12/24 03:01:56;;;;;;;16.85;15.27;;;11.90;99.90;;;;;;5009586;28;20029;-89
2022/12/24 03:05:07;;;;;;;19.58;18.17;;;11.90;99.90;;;;;;5006795;28;20501;-89
2022/12/24 03:07:35;;;;;;;20.67;18.65;;;11.90;99.90;;;;;;4990054;28;21293;-89
2022/12/24 03:10:37;;;;;;;21.25;19.45;;;11.90;99.90;;;;;;5011180;28;20049;-89
2022/12/24 03:13:14;;;;;;;21.55;19.85;;;11.90;99.90;;;;;;5009059;28;20045;-89
2022/12/24 03:15:40;;;;;;;21.92;19.98;;;11.90;99.90;;;;;;4993563;28;20038;-89
2022/12/24 03:18:07;;;;;;;21.80;20.02;;;11.90;99.90;;;;;;4991665;28;20022;-88
2022/12/24 03:20:57;;;;;;;24.55;22.60;;;11.90;99.90;;;;;;4989622;28;20037;-89
2022/12/24 03:23:23;;;;;;;23.75;21.95;;;11.90;99.90;;;;;;4982522;28;20034;-89
2022/12/24 03:25:49;;;;;;;24.05;22.00;;;11.90;99.90;;;;;;4989234;28;20030;-89
2022/12/24 03:28:16;;;;;;;24.33;22.42;;;11.90;99.90;;;;;;4988330;28;20033;-89
2022/12/24 03:30:43;;;;;;;23.77;22.08;;;11.90;99.90;;;;;;4989203;28;20042;-89
2022/12/24 03:33:10;;;;;;;25.25;23.23;;;11.90;99.90;;;;;;5003726;28;20030;-90
2022/12/24 03:35:36;;;;;;;23.92;21.75;;;11.90;99.90;;;;;;5007475;28;20483;-90
2022/12/24 03:38:02;;;;;;;23.95;21.75;;;12.00;99.90;;;;;;5009828;28;20038;-88
2022/12/24 03:40:28;;;;;;;24.83;22.45;;;12.00;99.90;;;;;;5004047;28;20589;-89
2022/12/24 03:42:54;;;;;;;22.63;20.75;;;11.90;99.90;;;;;;5009657;28;20026;-89
2022/12/24 03:45:20;;;;;;;21.23;19.55;;;11.90;99.90;;;;;;5010452;28;20034;-88
2022/12/24 03:47:46;;;;;;;23.27;21.17;;;12.00;99.90;;;;;;5007760;28;20026;-89
2022/12/24 03:50:12;;;;;;;20.88;18.65;;;12.00;99.90;;;;;;5008433;28;20049;-89
2022/12/24 03:52:39;;;;;;;21.42;19.33;;;12.00;99.90;;;;;;5009826;28;20436;-89
2022/12/24 03:55:05;;;;;;;23.70;21.73;;;12.00;99.90;;;;;;5010231;28;20036;-88
2022/12/24 03:57:31;;;;;;;22.92;21.17;;;12.10;99.90;;;;;;5009581;28;20082;-89
2022/12/24 03:59:57;;;;;;;21.52;19.75;;;12.10;99.90;;;;;;5011010;28;20498;-90
2022/12/24 04:02:23;;;;;;;23.52;21.23;;;12.10;99.90;;;;;;5010261;28;20042;-89
2022/12/24 04:04:49;;;;;;;22.55;20.23;;;12.10;99.90;;;;;;4992266;28;20054;-89
2022/12/24 04:07:15;;;;;;;21.60;19.83;;;12.10;99.90;;;;;;5012263;28;20033;-90
2022/12/24 04:09:41;;;;;;;21.30;19.25;;;12.10;99.90;;;;;;5007748;28;20030;-89
2022/12/24 04:12:08;;;;;;;22.55;20.80;;;12.10;99.90;;;;;;4993258;28;20072;-89
2022/12/24 04:14:34;;;;;;;21.20;19.17;;;12.10;99.90;;;;;;5010388;28;20045;-89
2022/12/24 04:17:00;;;;;;;22.02;20.02;;;12.10;99.90;;;;;;5006951;28;20079;-89
2022/12/24 04:19:26;;;;;;;20.95;18.77;;;12.00;99.90;;;;;;4990628;28;20392;-88
2022/12/24 04:21:52;;;;;;;20.92;19.25;;;11.90;99.90;;;;;;4989760;28;20404;-89
2022/12/24 04:24:18;;;;;;;20.33;18.40;;;12.00;99.90;;;;;;5000248;28;20094;-89
2022/12/24 04:26:44;;;;;;;20.38;18.70;;;12.00;99.90;;;;;;5006873;28;20037;-88
2022/12/24 04:29:10;;;;;;;22.60;19.23;;;12.00;99.90;;;;;;4992158;28;20463;-89
2022/12/24 04:31:36;;;;;;;18.35;16.73;;;12.00;99.90;;;;;;5027200;28;20050;-88
2022/12/24 04:34:03;;;;;;;18.88;16.95;;;12.00;99.90;;;;;;5003137;28;20403;-89
2022/12/24 04:36:29;;;;;;;19.75;17.83;;;12.00;99.90;;;;;;5001865;28;20044;-89
2022/12/24 04:38:55;;;;;;;20.00;17.35;;;12.10;99.90;;;;;;4991512;28;20037;-89
2022/12/24 04:41:22;;;;;;;21.40;18.58;;;12.10;99.90;;;;;;5009273;28;20026;-89
2022/12/24 04:43:48;;;;;;;17.70;15.40;;;12.10;99.90;;;;;;4993638;28;20042;-89
2022/12/24 04:46:18;;;;;;;20.15;16.33;;;12.10;99.90;;;;;;4994658;28;20034;-89
2022/12/24 04:48:46;;;;;;;20.58;16.50;;;12.10;99.90;;;;;;4997140;28;20375;-88
2022/12/24 04:51:12;;;;;;;17.00;15.60;;;12.10;99.90;;;;;;5012403;28;20030;-89
2022/12/24 04:53:40;;;;;;;18.40;16.55;;;12.10;99.90;;;;;;4996318;28;20041;-89
2022/12/24 04:56:20;;;;;;;19.83;17.92;;;12.10;99.90;;;;;;5012186;28;20394;-88
2022/12/24 04:58:46;;;;;;;18.42;16.85;;;12.20;99.90;;;;;;4995611;28;20049;-89
2022/12/24 05:01:15;;;;;;;18.23;16.73;;;12.10;99.90;;;;;;5011702;28;20037;-89
2022/12/24 05:03:41;;;;;;;27.15;18.10;;;12.10;99.90;;;;;;4978671;28;20034;-89
2022/12/24 05:06:08;;;;;;;19.00;17.08;;;12.20;99.90;;;;;;5021386;28;20042;-89
2022/12/24 05:08:34;;;;;;;19.88;17.67;;;12.20;99.90;;;;;;5010745;28;20025;-89
2022/12/24 05:11:00;;;;;;;20.27;16.85;;;12.20;99.90;;;;;;4999244;28;20387;-89
2022/12/24 05:13:27;;;;;;;21.20;18.52;;;12.20;99.90;;;;;;4999315;28;20048;-89
2022/12/24 05:15:53;;;;;;;24.27;17.50;;;12.20;99.90;;;;;;5029769;28;20030;-89
2022/12/24 05:18:19;;;;;;;19.50;17.58;;;12.20;99.90;;;;;;5032726;28;20490;-88
2022/12/24 05:20:46;;;;;;;20.05;17.98;;;12.20;99.90;;;;;;4997079;28;20430;-89
2022/12/24 05:26:22;;;;;;;22.02;19.75;;;12.20;99.90;;;;;;5010034;28;20048;-89
2022/12/24 05:28:53;;;;;;;25.92;17.77;;;12.20;99.90;;;;;;5001722;28;20375;-87
2022/12/24 05:31:19;;;;;;;18.85;17.15;;;12.20;99.90;;;;;;5014925;28;20040;-91
2022/12/24 05:33:45;;;;;;;22.15;18.08;;;12.20;99.90;;;;;;5003853;28;20521;-88
2022/12/24 05:36:12;;;;;;;22.38;20.23;;;12.20;99.90;;;;;;5029282;28;20040;-88
2022/12/24 05:38:38;;;;;;;23.75;20.88;;;12.20;99.90;;;;;;5001964;28;20445;-88
2022/12/24 05:41:04;;;;;;;22.15;19.98;;;12.30;99.90;;;;;;5003202;28;20029;-88
2022/12/24 05:43:30;;;;;;;22.77;20.33;;;12.20;99.90;;;;;;5017769;28;20064;-89
2022/12/24 05:45:58;;;;;;;19.92;17.13;;;12.30;99.90;;;;;;4985672;28;20041;-87
2022/12/24 05:48:24;;;;;;;22.00;19.67;;;12.30;99.90;;;;;;5018822;28;20048;-88
2022/12/24 05:50:50;;;;;;;25.00;19.45;;;12.20;99.90;;;;;;5016860;28;20029;-89
2022/12/24 05:53:16;;;;;;;24.00;19.35;;;12.20;99.90;;;;;;5036536;28;20050;-89
2022/12/24 05:55:42;;;;;;;22.23;20.10;;;12.20;99.90;;;;;;5001656;28;20040;-88
2022/12/24 05:58:08;;;;;;;22.33;20.58;;;12.20;99.90;;;;;;5001662;28;20049;-89
2022/12/24 06:00:35;;;;;;;24.20;20.38;;;12.20;99.90;;;;;;5014486;28;20025;-89
2022/12/24 06:03:01;;;;;;;20.75;18.67;;;12.30;99.90;;;;;;5005326;28;20034;-88
2022/12/24 06:05:27;;;;;;;26.23;20.40;;;12.30;99.90;;;;;;5017770;28;20060;-89
2022/12/24 06:07:53;;;;;;;22.65;20.02;;;12.30;99.90;;;;;;5013841;28;20045;-91
2022/12/24 06:10:19;;;;;;;21.23;18.95;;;12.20;99.90;;;;;;5012909;28;20093;-91
2022/12/24 06:12:45;;;;;;;24.50;19.13;;;12.30;99.90;;;;;;5014190;28;20041;-91
2022/12/24 06:15:11;;;;;;;22.90;20.60;;;12.20;99.90;;;;;;5031133;28;20041;-90
2022/12/24 06:17:37;;;;;;;23.92;20.90;;;12.30;99.90;;;;;;5015309;28;20026;-91
2022/12/24 06:20:04;;;;;;;22.23;20.10;;;12.30;99.90;;;;;;5016419;28;20398;-91
2022/12/24 06:22:30;;;;;;;24.52;22.02;;;12.40;99.90;;;;;;5031118;28;20025;-90
2022/12/24 06:24:56;;;;;;;21.13;18.92;;;12.30;99.90;;;;;;4999263;28;20037;-91
2022/12/24 06:27:22;;;;;;;20.85;18.77;;;12.30;99.90;;;;;;5032368;28;20037;-91
2022/12/24 06:29:48;;;;;;;22.85;20.48;;;12.30;99.90;;;;;;4998905;28;20041;-91
2022/12/24 06:32:14;;;;;;;21.15;19.27;;;12.30;99.90;;;;;;5012665;28;20049;-91
2022/12/24 06:34:41;;;;;;;20.00;18.13;;;12.30;99.90;;;;;;4998290;28;20030;-91
2022/12/24 06:37:07;;;;;;;21.73;19.20;;;12.30;99.90;;;;;;5016193;28;20036;-91
2022/12/24 06:39:33;;;;;;;24.33;21.48;;;12.30;99.90;;;;;;5033856;28;20041;-90
2022/12/24 06:41:59;;;;;;;22.40;19.73;;;12.20;99.90;;;;;;5016648;28;20074;-91
2022/12/24 06:44:25;;;;;;;22.17;20.17;;;12.30;99.90;;;;;;5015037;28;20081;-91
2022/12/24 06:46:52;;;;;;;23.35;20.88;;;12.30;99.90;;;;;;5015183;28;20048;-91
2022/12/24 06:49:18;;;;;;;23.85;21.52;;;12.30;99.90;;;;;;5012097;28;20029;-91
2022/12/24 06:51:44;;;;;;;22.60;20.63;;;12.30;99.90;;;;;;4997814;28;20037;-91
2022/12/24 06:54:10;;;;;;;24.13;21.35;;;12.30;99.90;;;;;;5017251;28;20478;-91
2022/12/24 06:56:36;;;;;;;19.70;17.70;;;12.30;99.90;;;;;;5035172;28;20041;-90
2022/12/24 06:59:02;;;;;;;20.60;18.73;;;12.30;99.90;;;;;;5014525;28;20406;-91
2022/12/24 07:01:28;;;;;;;24.63;19.25;;;12.30;99.90;;;;;;5031308;28;20037;-91
2022/12/24 07:03:54;;;;;;;21.83;18.63;;;12.30;99.90;;;;;;4998886;28;20053;-91
2022/12/24 07:06:25;;;;;;;22.10;18.95;;;12.30;99.90;;;;;;4997145;28;20414;-91
2022/12/24 07:08:51;;;;;;;20.00;18.25;;;12.30;99.90;;;;;;4981984;28;20135;-92
2022/12/24 07:11:17;;;;;;;18.80;16.90;;;12.30;99.90;;;;;;5007685;28;20025;-88
2022/12/24 07:13:43;;;;;;;20.88;18.50;;;12.30;99.90;;;;;;5017119;28;20048;-91
2022/12/24 07:16:09;;;;;;;19.20;17.45;;;12.30;99.90;;;;;;5020996;28;20041;-91
2022/12/24 07:18:35;;;;;;;18.73;16.85;;;12.30;99.90;;;;;;5042691;28;20026;-90
2022/12/24 07:21:03;;;;;;;20.52;18.33;;;12.30;99.90;;;;;;5043344;28;20083;-92
2022/12/24 07:23:30;;;;;;;18.85;17.23;;;12.20;99.90;;;;;;5030259;28;20028;-92
2022/12/24 07:26:01;;;;;;;21.42;19.08;;;12.20;99.90;;;;;;5012035;28;20496;-93
2022/12/24 07:28:27;;;;;;;23.73;20.05;;;12.20;99.90;;;;;;5024871;28;20033;-94
2022/12/24 07:30:54;;;;;;;22.50;19.90;;;12.30;99.90;;;;;;5043340;28;20037;-91
2022/12/24 07:33:20;;;;;;;21.38;18.83;;;12.30;99.90;;;;;;5033524;28;20038;-92
2022/12/24 07:35:47;;;;;;;23.80;18.15;;;12.30;99.90;;;;;;5006931;28;20042;-91
2022/12/24 07:38:13;;;;;;;20.98;19.08;;;12.30;99.90;;;;;;5008717;28;20045;-94
2022/12/24 07:40:39;;;;;;;20.10;18.02;;;12.40;99.90;;;;;;5024983;28;20112;-91
2022/12/24 07:43:05;;;;;;;20.40;18.70;;;12.50;99.90;;;;;;5030501;28;20034;-95
2022/12/24 07:45:31;;;;;;;20.83;18.63;;;12.40;99.90;;;;;;5035813;28;20036;-93
2022/12/24 07:47:57;;;;;;;21.55;16.83;;;12.50;99.90;;;;;;5026440;28;20052;-92
2022/12/24 07:52:52;;;;;;;20.05;17.63;;;12.40;99.90;;;;;;5036181;28;20061;-92
2022/12/24 07:55:18;;;;;;;19.50;15.90;;;12.50;99.90;;;;;;5025874;28;20489;-92
2022/12/24 07:57:44;;;;;;;18.80;16.95;;;12.60;99.90;;;;;;5050394;28;20030;-95
2022/12/24 08:00:10;;;;;;;19.23;17.17;;;12.50;99.90;;;;;;5039748;23;20052;-94
2022/12/24 08:02:37;;;;;;;18.20;15.80;;;12.50;99.90;;;;;;5141405;23;20045;-93
2022/12/24 08:05:03;;;;;;;17.90;16.05;;;12.60;99.90;;;;;;5004252;28;20047;-94
2022/12/24 08:07:29;;;;;;;21.98;15.65;;;12.60;99.90;;;;;;5011546;28;20026;-94
2022/12/24 08:09:56;;;;;;;19.67;17.17;;;12.60;99.90;;;;;;4999437;28;20045;-94
2022/12/24 08:12:23;;;;;;;19.02;17.17;;;12.70;99.90;;;;;;4979017;28;20042;-94
2022/12/24 08:14:49;;;;;;;19.02;17.25;;;12.70;99.90;;;;;;4997381;28;20222;-92
2022/12/24 08:17:15;;;;;;;19.45;16.27;;;12.70;99.90;;;;;;4988806;28;20035;-94
2022/12/24 08:19:41;;;;;;;18.40;16.42;;;12.70;99.90;;;;;;5012609;28;20037;-93
2022/12/24 08:22:08;;;;;;;18.83;16.95;;;12.70;99.90;;;;;;5093890;23;20058;-94
2022/12/24 08:24:36;;;;;;;19.63;17.88;;;12.70;99.90;;;;;;5155490;23;20515;-95
2022/12/24 08:29:40;;;;;;;19.17;17.25;;;12.60;99.90;;;;;;6005393;23;20052;31
2022/12/24 08:32:06;;;;;;;19.33;17.52;;;12.70;99.90;;;;;;4899295;29;19931;-95
2022/12/24 08:34:32;;;;;;;20.90;18.85;;;12.70;99.90;;;;;;4896611;29;20401;-91
2022/12/24 08:36:58;;;;;;;19.70;17.63;;;12.70;99.90;;;;;;4897633;29;20044;-91
2022/12/24 08:39:24;;;;;;;19.25;17.63;;;12.70;99.90;;;;;;4880548;29;20037;-90
2022/12/24 08:41:50;;;;;;;20.33;18.52;;;12.70;99.90;;;;;;4910138;29;20043;-93
2022/12/24 08:49:28;;;;;;;20.33;18.33;;;12.80;99.90;;;;;;5133833;23;20057;-89
2022/12/24 08:51:54;;;;;;;21.63;19.83;;;12.80;99.90;;;;;;5017109;28;20477;-92
2022/12/24 08:54:21;;;;;;;21.70;19.90;;;12.80;99.90;;;;;;5012434;28;20049;-93
2022/12/24 08:56:47;;;;;;;18.98;17.17;;;12.80;99.90;;;;;;5022128;28;20024;-91
2022/12/24 08:59:13;;;;;;;22.00;20.17;;;12.80;99.90;;;;;;4999297;28;20034;-84
2022/12/24 09:01:39;;;;;;;21.55;19.92;;;12.80;99.90;;;;;;4997202;28;20041;-88
2022/12/24 09:04:05;;;;;;;22.98;20.50;;;12.80;99.90;;;;;;5014286;28;20029;-88
2022/12/24 09:06:32;;;;;;;23.05;20.35;;;12.90;99.90;;;;;;5013765;28;20029;-90
2022/12/24 09:08:58;;;;;;;21.95;20.02;;;12.80;99.90;;;;;;5014017;28;20030;-85
2022/12/24 09:11:24;;;;;;;22.50;20.67;;;12.80;99.90;;;;;;5011827;28;20085;-93
2022/12/24 09:13:50;;;;;;;26.60;21.25;;;12.80;99.90;;;;;;5017056;28;20512;-94
2022/12/24 09:16:16;;;;;;;23.25;21.15;;;12.90;99.90;;;;;;5018139;28;20038;-93
2022/12/24 09:18:42;;;;;;;21.63;19.88;;;12.90;99.90;;;;;;4998549;28;20403;-88
2022/12/24 09:21:18;;;;;;;23.67;21.35;;;12.90;99.90;;;;;;5023673;28;20040;-94
2022/12/24 09:23:45;;;;;;;21.25;19.10;;;12.80;99.90;;;;;;5024429;28;20034;-92
2022/12/24 09:42:16;;;;;;;19.80;17.77;;;13.00;99.90;;;;;;5054050;28;20060;-91
2022/12/24 09:45:15;;;;;;;20.08;18.20;;;13.00;99.90;;;;;;5021719;28;20036;-88
2022/12/24 09:47:45;;;;;;;18.75;16.85;;;13.00;99.90;;;;;;4960576;28;20051;-90
2022/12/24 09:50:40;;;;;;;22.63;20.48;;;13.00;99.90;;;;;;4955916;28;20066;-90
2022/12/24 09:53:17;;;;;;;21.42;19.33;;;13.00;99.90;;;;;;4959050;28;20043;-92
2022/12/24 09:55:48;;;;;;;22.35;18.42;;;13.10;99.90;;;;;;4959124;28;20035;-93
2022/12/24 09:58:40;;;;;;;23.95;21.88;;;13.10;99.90;;;;;;4946774;28;20496;-92
2022/12/24 10:01:09;;;;;;;23.05;20.80;;;12.80;99.90;;;;;;4954788;28;20031;-93
2022/12/24 10:03:35;;;;;;;25.08;22.77;;;12.40;99.90;;;;;;4960127;28;20026;-92
2022/12/24 10:06:05;;;;;;;25.30;22.70;;;12.40;99.90;;;;;;4960271;28;20042;-89
2022/12/24 10:08:55;;;;;;;23.40;21.30;;;12.50;99.90;;;;;;4977109;28;20038;-93
2022/12/24 10:11:36;;;;;;;21.37;19.30;;;12.40;99.90;;;;;;4975883;28;20039;-93
2022/12/24 10:14:20;;;;;;;21.55;19.73;;;12.30;99.90;;;;;;4964179;28;20317;-90
2022/12/24 10:16:46;;;;;;;21.08;19.02;;;12.30;99.90;;;;;;4977122;28;20035;-93
2022/12/24 10:19:16;;;;;;;21.83;19.65;;;12.20;99.90;;;;;;4996190;28;20058;-94
2022/12/24 10:21:51;;;;;;;22.13;19.85;;;12.10;99.90;;;;;;4991800;28;20043;-90
2022/12/24 10:24:30;;;;;;;20.73;18.80;;;12.20;99.90;;;;;;4997642;28;20048;-91
2022/12/24 10:27:15;;;;;;;21.27;19.55;;;12.20;99.90;;;;;;5015541;28;20033;-91
2022/12/24 10:29:44;;;;;;;23.25;21.23;;;12.50;99.90;;;;;;5022887;28;20028;-91
2022/12/24 10:32:16;;;;;;;22.40;20.40;;;12.50;99.90;;;;;;5029795;28;20048;-94
2022/12/24 10:34:48;;;;;;;21.80;20.08;;;12.40;99.90;;;;;;5060921;28;20033;-88
2022/12/24 10:37:16;;;;;;;23.63;21.20;;;12.30;99.90;;;;;;5037285;28;20033;-91
2022/12/24 10:39:42;;;;;;;23.50;21.33;;;12.40;99.90;;;;;;5034632;28;20041;-92
2022/12/24 10:42:08;;;;;;;23.88;21.67;;;12.40;99.90;;;;;;4997944;28;20047;-91
2022/12/24 10:44:34;;;;;;;21.67;19.98;;;12.50;99.90;;;;;;5018190;28;20032;-91
2022/12/24 10:47:01;;;;;;;27.20;24.35;;;12.60;99.90;;;;;;5031511;28;20025;-90
2022/12/24 10:49:36;;;;;;;23.40;21.55;;;12.70;99.90;;;;;;5036301;28;20514;-92
2022/12/24 10:52:05;;;;;;;24.90;23.13;;;12.80;99.90;;;;;;5022752;28;20025;-91
2022/12/24 10:54:37;;;;;;;24.77;22.50;;;12.80;99.90;;;;;;5021035;28;20045;-93
2022/12/24 10:57:04;;;;;;;25.25;23.13;;;13.00;99.90;;;;;;5026334;28;20025;-93
2022/12/24 10:59:39;;;;;;;23.65;21.45;;;13.10;99.90;;;;;;5025379;28;20052;-93
2022/12/24 11:02:27;;;;;;;22.00;20.08;;;13.10;99.90;;;;;;5041382;28;20037;-93
2022/12/24 11:07:35;;;;;;;20.92;19.15;;;13.30;99.90;;;;;;5173399;23;20054;-92
2022/12/24 11:10:05;;;;;;;20.30;18.35;;;13.30;99.90;;;;;;5033344;28;20029;-94
2022/12/24 11:12:34;;;;;;;20.45;18.52;;;13.30;99.90;;;;;;5006830;28;20044;-94
2022/12/24 11:15:15;;;;;;;20.17;18.38;;;13.40;99.90;;;;;;5008512;28;20043;-92
2022/12/24 11:17:41;;;;;;;23.92;21.98;;;13.40;99.90;;;;;;5006604;28;20042;-94
2022/12/24 11:20:16;;;;;;;21.52;19.20;;;13.40;99.90;;;;;;5018610;28;20039;-94
2022/12/24 11:22:42;;;;;;;21.50;19.77;;;13.30;99.90;;;;;;5019402;28;20044;-92
2022/12/24 11:25:23;;;;;;;22.52;20.52;;;13.30;99.90;;;;;;4986291;28;20030;-84
2022/12/24 11:27:50;;;;;;;23.48;21.20;;;13.30;99.90;;;;;;5001366;28;20035;-95
2022/12/24 11:30:29;;;;;;;22.77;20.77;;;13.20;99.90;;;;;;4988452;28;20049;-95
2022/12/24 11:33:04;;;;;;;22.70;20.40;;;13.20;99.90;;;;;;5009993;28;20018;-96
2022/12/24 11:35:31;;;;;;;20.55;18.75;;;13.30;99.90;;;;;;5011039;28;20038;-93
2022/12/24 11:38:04;;;;;;;23.15;20.95;;;13.30;99.90;;;;;;5002871;28;20034;-95
2022/12/24 11:40:41;;;;;;;23.88;22.05;;;13.40;99.90;;;;;;5004270;28;20037;-93
2022/12/24 11:43:20;;;;;;;27.08;24.73;;;13.40;99.90;;;;;;4984809;28;20026;-95
2022/12/24 11:45:55;;;;;;;26.48;23.90;;;13.50;99.90;;;;;;4990882;28;20029;-94
2022/12/24 11:48:29;;;;;;;25.45;23.52;;;13.50;99.90;;;;;;5020220;28;20045;-96
2022/12/24 11:51:03;;;;;;;22.88;20.90;;;13.50;99.90;;;;;;5012009;28;20478;-95
2022/12/24 11:53:45;;;;;;;23.65;22.08;;;13.50;99.90;;;;;;5076897;23;20024;-95
2022/12/24 11:56:19;;;;;;;24.23;22.23;;;13.50;99.90;;;;;;4976853;28;20046;-94
2022/12/24 11:58:51;;;;;;;25.95;24.02;;;13.40;99.90;;;;;;5319641;23;20060;-94
2022/12/24 12:15:23;;;;;;;19.60;17.75;;;13.50;99.90;;;;;;5185958;23;20059;-95
2022/12/24 12:18:04;;;;;;;25.02;23.15;;;13.60;99.90;;;;;;5394554;23;20047;-94
2022/12/24 12:20:47;;;;;;;21.95;20.02;;;13.60;99.90;;;;;;5082796;23;20068;-94
2022/12/24 12:23:18;;;;;;;22.58;20.75;;;13.60;99.90;;;;;;4880968;29;20045;-92
2022/12/24 12:25:45;;;;;;;21.42;19.45;;;13.70;99.90;;;;;;4899458;29;20032;-92
2022/12/24 12:28:33;;;;;;;23.92;21.85;;;13.70;99.90;;;;;;4888434;29;20731;-92
2022/12/24 12:31:27;;;;;;;21.42;19.50;;;13.70;99.90;;;;;;4896923;29;20521;-95
2022/12/24 12:34:04;;;;;;;19.73;18.02;;;13.60;99.90;;;;;;4881105;29;20060;-94
2022/12/24 12:36:38;;;;;;;22.05;20.05;;;13.60;99.90;;;;;;4899642;29;20397;-94
2022/12/24 12:39:04;;;;;;;21.35;19.65;;;13.60;99.90;;;;;;4884554;29;20036;-94
2022/12/24 12:41:37;;;;;;;23.35;21.35;;;13.60;99.90;;;;;;4906726;29;20028;-92
2022/12/24 12:44:38;;;;;;;23.95;21.77;;;13.60;99.90;;;;;;4913131;29;20028;-94
2022/12/24 12:47:07;;;;;;;23.92;22.25;;;13.50;99.90;;;;;;4890328;29;20037;-93
2022/12/24 12:49:52;;;;;;;22.77;20.95;;;13.70;99.90;;;;;;4918404;29;20031;-93
2022/12/24 12:52:22;;;;;;;23.13;20.83;;;13.60;99.90;;;;;;4918691;29;20035;-93
2022/12/24 12:55:03;;;;;;;22.98;21.45;;;13.70;99.90;;;;;;4901527;29;20052;-93
2022/12/24 12:57:32;;;;;;;23.88;21.95;;;13.70;99.90;;;;;;4900863;29;20040;-93
2022/12/24 13:00:07;;;;;;;24.27;22.40;;;13.70;99.90;;;;;;4917182;29;20031;-94
2022/12/24 13:02:49;;;;;;;23.30;21.27;;;13.70;99.90;;;;;;4890819;29;20037;-93
2022/12/24 13:05:57;;;;;;;23.10;21.02;;;13.70;99.90;;;;;;4903793;29;20044;-93
2022/12/24 13:08:26;;;;;;;22.17;20.25;;;13.70;99.90;;;;;;4886168;29;20040;-94
2022/12/24 13:11:24;;;;;;;22.90;21.00;;;13.70;99.90;;;;;;4885091;29;20405;-94
2022/12/24 13:14:02;;;;;;;20.98;19.27;;;13.70;99.90;;;;;;4903601;29;20367;-95
2022/12/24 13:16:37;;;;;;;22.45;20.23;;;13.70;99.90;;;;;;4901518;29;20036;-94
2022/12/24 13:19:11;;;;;;;22.33;20.75;;;13.80;99.90;;;;;;4902690;29;20036;-92
2022/12/24 13:21:38;;;;;;;23.65;21.67;;;13.80;99.90;;;;;;4902773;29;20048;-93
2022/12/24 13:24:29;;;;;;;24.10;21.88;;;13.80;99.90;;;;;;4900181;29;20044;-94
2022/12/24 13:27:16;;;;;;;24.15;22.25;;;13.70;99.90;;;;;;4868793;29;20047;-95
2022/12/24 13:29:52;;;;;;;27.55;25.25;;;13.80;99.90;;;;;;4880774;29;20040;-93
2022/12/24 13:32:18;;;;;;;26.48;24.65;;;13.80;99.90;;;;;;4887092;29;20049;-94